createdAt,value
2017-11-18T00:01:35.308Z,61.78
2017-11-18T00:04:10.067Z,67.90
2017-11-18T00:06:44.489Z,58.53
2017-11-18T00:09:19.031Z,63.97
2017-11-18T00:11:52.894Z,66.87
2017-11-18T00:14:27.532Z,58.25
2017-11-18T00:17:01.233Z,64.18
2017-11-18T00:19:34.992Z,57.75
2017-11-18T00:22:08.925Z,63.47
2017-11-18T00:24:42.584Z,63.33
2017-11-18T00:27:16.689Z,59.33
2017-11-18T00:29:51.238Z,59.47
2017-11-18T00:32:25.108Z,65.12
2017-11-18T00:34:59.706Z,54.22
2017-11-18T00:37:34.472Z,54.33
2017-11-18T00:40:09.023Z,58.95
2017-11-18T00:42:42.916Z,55.42
2017-11-18T00:45:16.772Z,63.10
2017-11-18T00:47:51.758Z,56.55
2017-11-18T00:50:25.723Z,60.83
2017-11-18T00:53:04.273Z,55.95
2017-11-18T00:55:38.058Z,58.28
2017-11-18T00:58:12.694Z,50.25
2017-11-18T01:00:46.976Z,53.87
2017-11-18T01:03:21.716Z,55.12
2017-11-18T01:05:55.551Z,55.80
2017-11-18T01:08:30.320Z,71.00
2017-11-18T01:11:04.871Z,53.92
2017-11-18T01:13:38.696Z,59.45
2017-11-18T01:16:13.433Z,55.75
2017-11-18T01:18:47.076Z,55.78
2017-11-18T01:21:20.863Z,59.47
2017-11-18T01:23:54.661Z,56.22
2017-11-18T01:26:28.685Z,52.72
2017-11-18T01:29:03.212Z,57.65
2017-11-18T01:31:38.272Z,67.00
2017-11-18T01:34:13.152Z,55.45
2017-11-18T01:36:46.920Z,53.17
2017-11-18T01:39:21.277Z,63.42
2017-11-18T01:41:55.951Z,64.28
2017-11-18T01:44:30.324Z,57.85
2017-11-18T01:47:04.279Z,59.30
2017-11-18T01:49:38.673Z,54.30
2017-11-18T01:52:12.655Z,52.08
2017-11-18T01:54:46.584Z,44.95
2017-11-18T01:57:20.669Z,48.38
2017-11-18T01:59:54.603Z,55.58
2017-11-18T02:02:40.459Z,50.05
2017-11-18T02:05:14.984Z,56.33
2017-11-18T02:07:48.822Z,49.42
2017-11-18T02:10:23.698Z,46.20
2017-11-18T02:12:58.930Z,53.05
2017-11-18T02:15:32.927Z,59.42
2017-11-18T02:18:08.600Z,51.28
2017-11-18T02:20:42.320Z,52.40
2017-11-18T02:23:17.494Z,44.28
2017-11-18T02:25:52.074Z,46.25
2017-11-18T02:28:25.799Z,49.55
2017-11-18T02:31:01.027Z,48.95
2017-11-18T02:33:34.846Z,49.33
2017-11-18T02:36:08.881Z,51.25
2017-11-18T02:38:42.675Z,52.62
2017-11-18T02:41:16.478Z,45.78
2017-11-18T02:43:50.251Z,50.90
2017-11-18T02:46:24.033Z,44.17
2017-11-18T02:48:57.804Z,50.03
2017-11-18T02:51:33.147Z,49.92
2017-11-18T02:54:07.766Z,51.30
2017-11-18T02:56:42.024Z,52.97
2017-11-18T02:59:16.079Z,48.20
2017-11-18T03:01:50.856Z,44.38
2017-11-18T03:04:25.686Z,47.85
2017-11-18T03:06:59.537Z,49.90
2017-11-18T03:09:35.088Z,49.13
2017-11-18T03:12:09.004Z,51.63
2017-11-18T03:14:42.910Z,51.20
2017-11-18T03:17:17.691Z,64.22
2017-11-18T03:19:51.559Z,49.05
2017-11-18T03:22:25.444Z,51.33
2017-11-18T03:25:00.018Z,53.47
2017-11-18T03:27:33.803Z,56.03
2017-11-18T03:30:07.522Z,51.95
2017-11-18T03:32:41.645Z,50.53
2017-11-18T03:35:15.261Z,50.50
2017-11-18T03:37:49.028Z,44.72
2017-11-18T03:40:22.751Z,49.05
2017-11-18T03:42:57.146Z,56.40
2017-11-18T03:45:31.389Z,44.22
2017-11-18T03:48:06.037Z,48.45
2017-11-18T03:50:40.665Z,42.90
2017-11-18T03:53:16.962Z,50.78
2017-11-18T03:55:50.694Z,57.05
2017-11-18T03:58:24.481Z,56.60
2017-11-18T04:00:59.137Z,70.47
2017-11-18T04:03:33.649Z,45.97
2017-11-18T04:06:07.332Z,58.08
2017-11-18T04:08:42.791Z,59.63
2017-11-18T04:11:16.531Z,84.28
2017-11-18T04:13:50.396Z,74.87
2017-11-18T04:16:24.290Z,51.17
2017-11-18T04:18:58.880Z,51.88
2017-11-18T04:21:32.772Z,54.83
2017-11-18T04:24:06.547Z,60.12
2017-11-18T04:26:41.194Z,63.58
2017-11-18T04:29:14.882Z,48.72
2017-11-18T04:31:48.745Z,52.45
2017-11-18T04:34:23.432Z,53.33
2017-11-18T04:36:57.081Z,53.97
2017-11-18T04:39:31.577Z,56.25
2017-11-18T04:42:06.182Z,51.53
2017-11-18T04:44:40.341Z,53.50
2017-11-18T04:47:14.117Z,54.08
2017-11-18T04:49:48.780Z,58.45
2017-11-18T04:52:22.577Z,54.78
2017-11-18T04:54:56.307Z,47.75
2017-11-18T04:57:30.186Z,64.57
2017-11-18T05:00:05.371Z,59.42
2017-11-18T05:02:39.703Z,55.20
2017-11-18T05:05:13.271Z,52.05
2017-11-18T05:07:47.490Z,63.55
2017-11-18T05:10:21.332Z,55.47
2017-11-18T05:12:55.278Z,51.60
2017-11-18T05:15:29.901Z,58.05
2017-11-18T05:18:03.698Z,63.85
2017-11-18T05:20:38.472Z,56.35
2017-11-18T05:23:12.313Z,47.42
2017-11-18T05:25:46.930Z,54.92
2017-11-18T05:28:21.130Z,53.53
2017-11-18T05:30:56.412Z,57.08
2017-11-18T05:33:30.184Z,58.78
2017-11-18T05:36:04.605Z,49.08
2017-11-18T05:38:39.334Z,53.80
2017-11-18T05:41:13.970Z,48.60
2017-11-18T05:43:47.638Z,51.17
2017-11-18T05:46:21.469Z,77.45
2017-11-18T05:48:55.195Z,52.80
2017-11-18T05:51:28.887Z,57.65
2017-11-18T05:54:03.526Z,52.53
2017-11-18T05:56:38.314Z,45.55
2017-11-18T05:59:12.047Z,50.25
2017-11-18T06:01:45.890Z,52.85
2017-11-18T06:04:20.530Z,46.55
2017-11-18T06:06:54.356Z,55.70
2017-11-18T06:09:28.811Z,54.65
2017-11-18T06:12:03.367Z,48.25
2017-11-18T06:14:38.205Z,52.25
2017-11-18T06:17:13.808Z,53.90
2017-11-18T06:19:48.491Z,56.15
2017-11-18T06:22:22.298Z,54.05
2017-11-18T06:24:56.220Z,59.15
2017-11-18T06:27:31.261Z,52.83
2017-11-18T06:30:05.906Z,51.65
2017-11-18T06:32:40.829Z,53.63
2017-11-18T06:35:14.711Z,57.65
2017-11-18T06:37:48.487Z,47.70
2017-11-18T06:40:22.988Z,55.05
2017-11-18T06:42:57.846Z,50.97
2017-11-18T06:45:31.702Z,48.10
2017-11-18T06:48:05.541Z,50.88
2017-11-18T06:50:40.263Z,60.33
2017-11-18T06:53:14.728Z,78.22
2017-11-18T06:55:48.524Z,62.47
2017-11-18T06:58:22.326Z,49.38
2017-11-18T07:00:56.056Z,81.03
2017-11-18T07:03:31.321Z,61.63
2017-11-18T07:06:05.730Z,79.28
2017-11-18T07:08:39.507Z,70.30
2017-11-18T07:11:13.402Z,55.38
2017-11-18T07:13:47.890Z,63.55
2017-11-18T07:16:21.845Z,65.30
2017-11-18T07:18:55.551Z,52.85
2017-11-18T07:21:29.943Z,58.10
2017-11-18T07:24:04.237Z,51.03
2017-11-18T07:26:37.942Z,50.95
2017-11-18T07:29:11.667Z,139.12
2017-11-18T07:31:46.559Z,64.60
2017-11-18T07:34:20.308Z,59.15
2017-11-18T07:36:54.256Z,45.65
2017-11-18T07:39:28.678Z,45.95
2017-11-18T07:42:05.359Z,60.30
2017-11-18T07:44:39.280Z,97.37
2017-11-18T07:47:13.963Z,87.65
2017-11-18T07:49:47.624Z,56.40
2017-11-18T07:52:21.366Z,53.58
2017-11-18T07:54:55.135Z,56.35
2017-11-18T07:57:29.107Z,74.43
2017-11-18T08:00:03.037Z,78.55
2017-11-18T08:02:37.736Z,60.72
2017-11-18T08:05:11.520Z,103.28
2017-11-18T08:07:46.287Z,55.70
2017-11-18T08:10:22.866Z,55.55
2017-11-18T08:12:57.552Z,48.92
2017-11-18T08:15:33.984Z,47.42
2017-11-18T08:18:07.713Z,47.50
2017-11-18T08:20:42.384Z,48.70
2017-11-18T08:23:16.292Z,60.30
2017-11-18T08:25:51.050Z,77.93
2017-11-18T08:28:24.965Z,59.03
2017-11-18T08:30:59.694Z,51.03
2017-11-18T08:33:33.586Z,51.88
2017-11-18T08:36:20.364Z,51.95
2017-11-18T08:38:54.217Z,50.45
2017-11-18T08:41:27.942Z,43.78
2017-11-18T08:44:01.680Z,46.00
2017-11-18T08:46:35.487Z,43.45
2017-11-18T08:49:10.149Z,43.35
2017-11-18T08:51:43.859Z,36.28
2017-11-18T08:54:18.478Z,37.42
2017-11-18T08:56:52.151Z,43.42
2017-11-18T08:59:26.075Z,38.80
2017-11-18T09:02:00.053Z,31.98
2017-11-18T09:04:33.802Z,40.75
2017-11-18T09:07:07.653Z,37.15
2017-11-18T09:09:42.659Z,31.17
2017-11-18T09:12:16.524Z,63.22
2017-11-18T09:14:50.568Z,170.73
2017-11-18T09:17:24.189Z,58.72
2017-11-18T09:19:58.084Z,53.50
2017-11-18T09:22:32.552Z,34.05
2017-11-18T09:25:07.171Z,33.08
2017-11-18T09:27:42.578Z,32.97
2017-11-18T09:30:16.479Z,29.55
2017-11-18T09:32:51.168Z,28.85
2017-11-18T09:35:25.057Z,25.08
2017-11-18T09:37:59.639Z,32.85
2017-11-18T09:40:33.366Z,28.45
2017-11-18T09:43:07.215Z,24.83
2017-11-18T09:45:42.210Z,25.70
2017-11-18T09:48:16.023Z,30.80
2017-11-18T09:50:49.776Z,27.20
2017-11-18T09:53:23.580Z,25.48
2017-11-18T09:55:57.315Z,27.52
2017-11-18T09:58:30.822Z,22.52
2017-11-18T10:01:04.383Z,33.92
2017-11-18T10:03:37.986Z,21.60
2017-11-18T10:06:22.093Z,17.60
2017-11-18T10:08:55.807Z,19.85
2017-11-18T10:11:29.452Z,22.05
2017-11-18T10:14:03.028Z,21.15
2017-11-18T10:16:36.706Z,21.17
2017-11-18T10:19:10.315Z,16.77
2017-11-18T10:21:43.885Z,18.35
2017-11-18T10:24:17.428Z,21.30
2017-11-18T10:26:51.075Z,19.30
2017-11-18T10:29:24.762Z,18.45
2017-11-18T10:31:58.350Z,23.30
2017-11-18T10:34:31.945Z,19.65
2017-11-18T10:37:06.417Z,21.77
2017-11-18T10:39:40.010Z,17.45
2017-11-18T10:42:13.559Z,13.38
2017-11-18T10:44:47.176Z,9.52
2017-11-18T10:47:20.751Z,10.35
2017-11-18T10:49:54.638Z,12.73
2017-11-18T10:52:28.869Z,14.98
2017-11-18T10:55:03.179Z,17.42
2017-11-18T10:57:37.476Z,15.98
2017-11-18T11:00:14.734Z,9.93
2017-11-18T11:02:48.555Z,13.93
2017-11-18T11:05:22.599Z,11.88
2017-11-18T11:07:56.718Z,10.07
2017-11-18T11:10:31.158Z,11.35
2017-11-18T11:13:05.368Z,12.88
2017-11-18T11:15:39.595Z,8.40
2017-11-18T11:18:13.564Z,8.38
2017-11-18T11:20:47.321Z,15.57
2017-11-18T11:23:21.515Z,13.93
2017-11-18T11:25:55.477Z,14.10
2017-11-18T11:28:29.465Z,15.80
2017-11-18T11:31:03.467Z,14.23
2017-11-18T11:33:37.521Z,12.73
2017-11-18T11:36:11.417Z,13.80
2017-11-18T11:38:45.446Z,14.87
2017-11-18T11:41:20.308Z,22.23
2017-11-18T11:43:54.357Z,18.98
2017-11-18T11:46:28.475Z,22.25
2017-11-18T11:49:03.454Z,13.95
2017-11-18T11:51:38.625Z,14.10
2017-11-18T11:54:12.595Z,10.75
2017-11-18T11:56:48.017Z,11.30
2017-11-18T11:59:21.970Z,13.15
2017-11-18T12:01:55.774Z,15.95
2017-11-18T12:04:29.819Z,59.75
2017-11-18T12:07:04.127Z,38.65
2017-11-18T12:09:37.979Z,22.52
2017-11-18T12:12:12.028Z,14.45
2017-11-18T12:14:46.853Z,16.77
2017-11-18T12:17:20.840Z,23.92
2017-11-18T12:19:54.749Z,24.80
2017-11-18T12:22:29.114Z,15.77
2017-11-18T12:25:03.975Z,13.90
2017-11-18T12:27:38.052Z,14.00
2017-11-18T12:30:12.649Z,11.20
2017-11-18T12:32:47.405Z,12.20
2017-11-18T12:35:22.098Z,19.37
2017-11-18T12:37:56.187Z,17.73
2017-11-18T12:40:30.136Z,28.60
2017-11-18T12:43:04.422Z,57.62
2017-11-18T12:45:40.082Z,34.80
2017-11-18T12:48:14.039Z,33.10
2017-11-18T12:50:47.911Z,19.27
2017-11-18T12:53:22.365Z,20.33
2017-11-18T12:55:56.583Z,18.92
2017-11-18T12:58:31.109Z,16.85
2017-11-18T13:01:05.253Z,15.80
2017-11-18T13:03:39.269Z,43.95
2017-11-18T13:06:13.241Z,15.70
2017-11-18T13:08:48.040Z,14.35
2017-11-18T13:11:22.657Z,12.88
2017-11-18T13:13:56.825Z,11.70
2017-11-18T13:16:32.085Z,10.05
2017-11-18T13:19:05.912Z,9.75
2017-11-18T13:21:39.641Z,11.95
2017-11-18T13:24:14.304Z,11.45
2017-11-18T13:26:49.157Z,8.98
2017-11-18T13:29:23.696Z,10.55
2017-11-18T13:31:57.968Z,8.80
2017-11-18T13:34:31.946Z,8.32
2017-11-18T13:37:05.686Z,7.07
2017-11-18T13:39:41.331Z,8.80
2017-11-18T13:42:16.233Z,7.80
2017-11-18T13:44:49.915Z,5.20
2017-11-18T13:47:23.877Z,8.75
2017-11-18T13:49:57.877Z,5.28
2017-11-18T13:52:32.476Z,4.50
2017-11-18T13:55:06.334Z,7.57
2017-11-18T13:57:41.193Z,7.40
2017-11-18T14:00:16.250Z,7.57
2017-11-18T14:02:50.086Z,8.35
2017-11-18T14:05:24.946Z,12.57
2017-11-18T14:07:59.385Z,5.53
2017-11-18T14:10:33.241Z,7.90
2017-11-18T14:13:08.713Z,6.57
2017-11-18T14:15:42.914Z,8.98
2017-11-18T14:18:16.979Z,14.27
2017-11-18T14:20:51.639Z,3.72
2017-11-18T14:23:26.679Z,13.43
2017-11-18T14:26:00.924Z,12.93
2017-11-18T14:28:35.594Z,6.03
2017-11-18T14:31:10.376Z,5.80
2017-11-18T14:33:44.412Z,7.15
2017-11-18T14:36:18.585Z,7.62
2017-11-18T14:38:52.412Z,8.57
2017-11-18T14:41:26.359Z,12.35
2017-11-18T14:44:00.287Z,7.43
2017-11-18T14:46:34.168Z,7.00
2017-11-18T14:49:08.134Z,8.30
2017-11-18T14:51:41.895Z,9.30
2017-11-18T14:54:16.084Z,7.57
2017-11-18T14:56:49.799Z,9.23
2017-11-18T14:59:24.400Z,10.00
2017-11-18T15:01:58.357Z,9.88
2017-11-18T15:04:33.064Z,7.97
2017-11-18T15:07:07.448Z,5.95
2017-11-18T15:09:41.837Z,6.97
2017-11-18T15:12:15.458Z,9.93
2017-11-18T15:14:51.679Z,9.02
2017-11-18T15:17:31.034Z,5.65
2017-11-18T15:20:11.250Z,9.02
2017-11-18T15:22:50.582Z,8.13
2017-11-18T15:25:30.126Z,13.57
2017-11-18T15:28:08.324Z,8.70
2017-11-18T15:44:18.885Z,15.85
2017-11-18T15:47:11.970Z,90.97
2017-11-18T15:49:51.434Z,115.65
2017-11-18T16:05:53.205Z,10.95
2017-11-18T16:08:27.253Z,23.80
2017-11-18T16:11:01.039Z,16.20
2017-11-18T16:13:34.740Z,13.95
2017-11-18T16:16:08.376Z,10.13
2017-11-18T16:18:41.936Z,12.80
2017-11-18T16:21:15.431Z,12.15
2017-11-18T16:23:49.004Z,11.25
2017-11-18T16:26:22.532Z,12.60
2017-11-18T16:28:56.838Z,14.95
2017-11-18T16:31:30.502Z,15.20
2017-11-18T16:34:04.162Z,12.98
2017-11-18T16:36:38.547Z,18.50
2017-11-18T16:39:12.277Z,18.27
2017-11-18T16:41:45.850Z,21.55
2017-11-18T16:44:19.443Z,21.55
2017-11-18T16:46:53.148Z,19.58
2017-11-18T16:49:27.670Z,22.48
2017-11-18T16:52:01.348Z,19.55
2017-11-18T16:54:36.128Z,19.95
2017-11-18T16:57:09.894Z,17.25
2017-11-18T16:59:44.456Z,19.02
2017-11-18T17:02:18.952Z,15.68
2017-11-18T17:04:52.632Z,14.87
2017-11-18T17:07:26.181Z,22.65
2017-11-18T17:09:59.787Z,23.55
2017-11-18T17:12:33.348Z,19.70
2017-11-18T17:15:06.951Z,17.87
2017-11-18T17:17:40.543Z,18.23
2017-11-18T17:20:14.226Z,13.80
2017-11-18T17:22:47.786Z,16.45
2017-11-18T17:25:21.365Z,20.70
2017-11-18T17:27:54.957Z,13.65
2017-11-18T17:30:29.296Z,12.48
2017-11-18T17:33:03.708Z,18.73
2017-11-18T17:35:37.319Z,20.25
2017-11-18T17:38:10.916Z,18.37
2017-11-18T17:40:44.629Z,14.13
2017-11-18T17:43:18.179Z,21.02
2017-11-18T17:45:51.781Z,19.92
2017-11-18T17:48:25.419Z,14.98
2017-11-18T17:50:58.994Z,15.70
2017-11-18T17:53:32.566Z,14.80
2017-11-18T17:56:07.050Z,19.00
2017-11-18T17:58:40.589Z,17.08
2017-11-18T18:01:14.153Z,20.42
2017-11-18T18:03:47.699Z,17.87
2017-11-18T18:06:21.273Z,22.23
2017-11-18T18:08:54.914Z,30.77
2017-11-18T18:11:28.661Z,14.07
2017-11-18T18:14:02.942Z,17.17
2017-11-18T18:16:36.703Z,15.75
2017-11-18T18:19:10.239Z,15.20
2017-11-18T18:21:43.859Z,21.62
2017-11-18T18:24:18.252Z,15.27
2017-11-18T18:26:51.871Z,19.23
2017-11-18T18:29:25.457Z,18.27
2017-11-18T18:31:59.885Z,17.20
2017-11-18T18:34:33.416Z,19.08
2017-11-18T18:37:06.987Z,15.68
2017-11-18T18:39:40.579Z,21.52
2017-11-18T18:42:15.037Z,18.10
2017-11-18T18:44:48.574Z,17.35
2017-11-18T18:47:22.206Z,18.75
2017-11-18T18:49:55.926Z,27.35
2017-11-18T18:52:29.666Z,16.48
2017-11-18T18:55:03.203Z,20.58
2017-11-18T18:57:36.722Z,25.00
2017-11-18T19:00:11.231Z,18.20
2017-11-18T19:02:44.945Z,19.50
2017-11-18T19:05:18.515Z,19.00
2017-11-18T19:07:52.174Z,20.02
2017-11-18T19:10:25.729Z,19.65
2017-11-18T19:12:59.255Z,18.55
2017-11-18T19:15:32.839Z,18.55
2017-11-18T19:18:06.649Z,21.52
2017-11-18T19:20:41.248Z,15.73
2017-11-18T19:23:15.106Z,16.12
2017-11-18T19:25:48.778Z,25.50
2017-11-18T19:28:22.294Z,18.20
2017-11-18T19:30:55.867Z,19.58
2017-11-18T19:33:30.234Z,19.48
2017-11-18T19:36:03.774Z,19.77
2017-11-18T19:38:37.416Z,26.45
2017-11-18T19:41:10.967Z,18.15
2017-11-18T19:43:44.620Z,23.77
2017-11-18T19:46:18.894Z,26.92
2017-11-18T19:48:52.522Z,32.95
2017-11-18T19:51:26.133Z,29.15
2017-11-18T19:53:59.701Z,22.95
2017-11-18T19:56:33.319Z,19.33
2017-11-18T19:59:06.913Z,21.73
2017-11-18T20:01:40.634Z,24.15
2017-11-18T20:04:14.247Z,21.98
2017-11-18T20:06:47.783Z,17.60
2017-11-18T20:09:21.469Z,25.70
2017-11-18T20:11:54.972Z,25.83
2017-11-18T20:14:28.727Z,24.92
2017-11-18T20:17:02.302Z,30.05
2017-11-18T20:19:35.930Z,26.83
2017-11-18T20:22:10.282Z,20.70
2017-11-18T20:24:43.881Z,19.83
2017-11-18T20:27:17.502Z,21.45
2017-11-18T20:29:51.172Z,22.08
2017-11-18T20:32:25.648Z,27.62
2017-11-18T20:34:59.255Z,20.37
2017-11-18T20:37:32.782Z,21.35
2017-11-18T20:40:07.204Z,22.20
2017-11-18T20:42:41.008Z,22.02
2017-11-18T20:45:14.577Z,20.95
2017-11-18T20:47:48.099Z,21.62
2017-11-18T20:50:21.707Z,21.10
2017-11-18T20:52:55.257Z,21.65
2017-11-18T20:55:29.553Z,24.35
2017-11-18T20:58:03.322Z,22.17
2017-11-18T21:00:36.909Z,25.42
2017-11-18T21:03:10.426Z,21.48
2017-11-18T21:05:43.955Z,26.48
2017-11-18T21:08:17.762Z,25.95
2017-11-18T21:10:51.455Z,22.67
2017-11-18T21:13:25.163Z,23.73
2017-11-18T21:15:58.697Z,43.40
2017-11-18T21:18:32.411Z,66.70
2017-11-18T21:21:06.128Z,67.15
2017-11-18T21:23:40.628Z,39.47
2017-11-18T21:26:14.157Z,48.28
2017-11-18T21:28:47.738Z,56.25
2017-11-18T21:31:21.508Z,35.45
2017-11-18T21:33:55.283Z,42.70
2017-11-18T21:36:28.978Z,28.62
2017-11-18T21:39:02.530Z,25.37
2017-11-18T21:41:36.134Z,32.50
2017-11-18T21:44:09.828Z,28.33
2017-11-18T21:46:43.435Z,31.83
2017-11-18T21:49:17.135Z,31.75
2017-11-18T21:51:50.746Z,35.15
2017-11-18T21:54:24.330Z,28.70
2017-11-18T21:56:57.914Z,28.70
2017-11-18T21:59:31.416Z,21.17
2017-11-18T22:02:05.757Z,28.77
2017-11-18T22:04:39.282Z,27.05
2017-11-18T22:07:12.889Z,35.80
2017-11-18T22:09:47.491Z,28.83
2017-11-18T22:12:21.079Z,31.62
2017-11-18T22:14:54.808Z,29.40
2017-11-18T22:17:28.378Z,25.08
2017-11-18T22:20:01.978Z,34.80
2017-11-18T22:22:35.623Z,28.45
2017-11-18T22:25:09.193Z,31.50
2017-11-18T22:27:42.814Z,27.45
2017-11-18T22:30:16.593Z,26.00
2017-11-18T22:32:50.409Z,21.37
2017-11-18T22:35:25.031Z,26.80
2017-11-18T22:37:59.605Z,30.98
2017-11-18T22:40:33.903Z,25.55
2017-11-18T22:43:09.213Z,29.45
2017-11-18T22:45:43.095Z,28.23
2017-11-18T22:48:16.873Z,23.65
2017-11-18T22:50:50.589Z,28.02
2017-11-18T22:53:25.226Z,28.33
2017-11-18T22:56:00.709Z,27.37
2017-11-18T22:58:35.290Z,29.87
2017-11-18T23:01:09.433Z,24.60
2017-11-18T23:03:42.988Z,27.15
2017-11-18T23:06:16.546Z,29.20
2017-11-18T23:08:50.138Z,31.85
2017-11-18T23:11:23.724Z,28.15
2017-11-18T23:13:57.348Z,29.48
2017-11-18T23:16:30.936Z,26.02
2017-11-18T23:19:04.708Z,24.33
2017-11-18T23:21:38.266Z,24.98
2017-11-18T23:24:11.873Z,28.02
2017-11-18T23:26:45.417Z,28.50
2017-11-18T23:29:18.993Z,26.58
2017-11-18T23:31:52.778Z,29.73
2017-11-18T23:34:26.504Z,25.85
2017-11-18T23:37:00.112Z,28.45
2017-11-18T23:39:33.678Z,32.35
2017-11-18T23:42:07.949Z,32.80
2017-11-18T23:44:41.585Z,27.77
2017-11-18T23:47:15.184Z,23.87
2017-11-18T23:49:48.739Z,25.62
2017-11-18T23:52:22.453Z,26.37
2017-11-18T23:54:56.062Z,30.70
2017-11-18T23:57:29.739Z,28.30
